DLH439 KDFW-EDDF
Flight info
| Callsign | DLH439 |
|---|---|
| Flight time | 5h 2m |
| Altitude | 35000 |
| Route | AKUNA9 MLC DCT KM39G DCT KK57K DCT GIJ DCT ECK DCT ROSVO DCT ANCER/N0471F370 DCT RIKAL/M082F370 DCT 53N050W 54N040W 55N030W 55N020W DCT RESNO/N0471F370 DCT NETKI DCT MORAG/N0467F390 DCT NUCHU L607 KONAN UL607 SPI T180 NIVNU/N0418F230 T847 IMCOM IMCOM1D |
| Aircraft | A346/H-SDE2E3FGHIJ3J4J5M1RWXY/LB1D1 |
Departure
| Time | 2026-04-14 02:16 |
|---|---|
| Airport | Dallas Fort Worth International Airport (KDFW) |
Arrival
| Time | 2026-04-14 07:18 |
|---|---|
| Airport | Frankfurt Main Airport (EDDF) |
| Time | Latitude | Longitude | Altitude | Speed | Heading |
|---|---|---|---|---|---|
| 2026-04-14 01:37 | 32.89482 | -97.04308 | 613 ft | 0 kts | 1° |
| 2026-04-14 01:57 | 32.89480 | -97.04309 | 606 ft | 1 kts | 1° |
| 2026-04-14 01:58 | 32.89467 | -97.04309 | 621 ft | 2 kts | 0° |
| 2026-04-14 01:58 | 32.89450 | -97.04307 | 617 ft | 3 kts | 341° |
| 2026-04-14 01:58 | 32.89438 | -97.04299 | 623 ft | 3 kts | 313° |
| 2026-04-14 01:58 | 32.89431 | -97.04286 | 623 ft | 3 kts | 285° |
| 2026-04-14 01:59 | 32.89428 | -97.04264 | 623 ft | 3 kts | 271° |
| 2026-04-14 01:59 | 32.89428 | -97.04240 | 623 ft | 3 kts | 269° |
| 2026-04-14 01:59 | 32.89428 | -97.04228 | 623 ft | 1 kts | 270° |
| 2026-04-14 01:59 | 32.89428 | -97.04226 | 623 ft | 0 kts | 270° |
| 2026-04-14 02:00 | 32.89428 | -97.04227 | 623 ft | 0 kts | 270° |
| 2026-04-14 02:02 | 32.89428 | -97.04228 | 606 ft | 1 kts | 270° |
| 2026-04-14 02:02 | 32.89428 | -97.04280 | 622 ft | 8 kts | 270° |
| 2026-04-14 02:02 | 32.89429 | -97.04355 | 618 ft | 10 kts | 270° |
| 2026-04-14 02:03 | 32.89429 | -97.04442 | 618 ft | 11 kts | 270° |
| 2026-04-14 02:03 | 32.89430 | -97.04543 | 618 ft | 13 kts | 270° |
| 2026-04-14 02:03 | 32.89430 | -97.04652 | 618 ft | 10 kts | 270° |
| 2026-04-14 02:03 | 32.89430 | -97.04710 | 618 ft | 5 kts | 269° |
| 2026-04-14 02:04 | 32.89430 | -97.04733 | 618 ft | 3 kts | 277° |
| 2026-04-14 02:04 | 32.89461 | -97.04763 | 611 ft | 8 kts | 345° |
| 2026-04-14 02:04 | 32.89524 | -97.04768 | 614 ft | 10 kts | 359° |
| 2026-04-14 02:04 | 32.89603 | -97.04768 | 621 ft | 12 kts | 360° |
| 2026-04-14 02:05 | 32.89692 | -97.04768 | 615 ft | 14 kts | 0° |
| 2026-04-14 02:05 | 32.89790 | -97.04767 | 619 ft | 14 kts | 0° |
| 2026-04-14 02:05 | 32.89894 | -97.04767 | 615 ft | 15 kts | 0° |
| 2026-04-14 02:05 | 32.90002 | -97.04766 | 614 ft | 16 kts | 0° |
| 2026-04-14 02:06 | 32.90116 | -97.04766 | 614 ft | 17 kts | 0° |
| 2026-04-14 02:06 | 32.90231 | -97.04765 | 615 ft | 17 kts | 0° |
| 2026-04-14 02:06 | 32.90351 | -97.04763 | 624 ft | 17 kts | 1° |
| 2026-04-14 02:06 | 32.90473 | -97.04762 | 614 ft | 18 kts | 0° |
| 2026-04-14 02:07 | 32.90599 | -97.04762 | 615 ft | 18 kts | 0° |
| 2026-04-14 02:07 | 32.90728 | -97.04761 | 614 ft | 19 kts | 0° |
| 2026-04-14 02:07 | 32.90831 | -97.04761 | 615 ft | 8 kts | 0° |
| 2026-04-14 02:07 | 32.90896 | -97.04760 | 616 ft | 11 kts | 0° |
| 2026-04-14 02:08 | 32.90965 | -97.04760 | 615 ft | 9 kts | 0° |
| 2026-04-14 02:08 | 32.91002 | -97.04753 | 610 ft | 6 kts | 31° |
| 2026-04-14 02:08 | 32.91010 | -97.04687 | 618 ft | 10 kts | 88° |
| 2026-04-14 02:08 | 32.91012 | -97.04586 | 619 ft | 13 kts | 89° |
| 2026-04-14 02:09 | 32.91012 | -97.04474 | 606 ft | 14 kts | 91° |
| 2026-04-14 02:09 | 32.91011 | -97.04353 | 618 ft | 15 kts | 91° |
| 2026-04-14 02:09 | 32.91010 | -97.04226 | 618 ft | 16 kts | 89° |
| 2026-04-14 02:09 | 32.91010 | -97.04093 | 618 ft | 16 kts | 90° |
| 2026-04-14 02:10 | 32.91010 | -97.03956 | 618 ft | 17 kts | 90° |
| 2026-04-14 02:10 | 32.91009 | -97.03815 | 617 ft | 17 kts | 90° |
| 2026-04-14 02:10 | 32.91008 | -97.03673 | 616 ft | 17 kts | 90° |
| 2026-04-14 02:10 | 32.91007 | -97.03533 | 610 ft | 16 kts | 90° |
| 2026-04-14 02:11 | 32.91006 | -97.03437 | 606 ft | 7 kts | 90° |
| 2026-04-14 02:11 | 32.91008 | -97.03400 | 612 ft | 4 kts | 78° |
| 2026-04-14 02:11 | 32.91034 | -97.03366 | 619 ft | 7 kts | 20° |
| 2026-04-14 02:11 | 32.91097 | -97.03362 | 614 ft | 13 kts | 1° |
| 2026-04-14 02:12 | 32.91199 | -97.03359 | 615 ft | 15 kts | 1° |
| 2026-04-14 02:12 | 32.91308 | -97.03359 | 614 ft | 16 kts | 359° |
| 2026-04-14 02:12 | 32.91419 | -97.03359 | 614 ft | 16 kts | 0° |
| 2026-04-14 02:12 | 32.91506 | -97.03359 | 615 ft | 3 kts | 0° |
| 2026-04-14 02:13 | 32.91535 | -97.03356 | 614 ft | 5 kts | 17° |
| 2026-04-14 02:13 | 32.91560 | -97.03313 | 621 ft | 8 kts | 85° |
| 2026-04-14 02:13 | 32.91559 | -97.03225 | 618 ft | 15 kts | 90° |
| 2026-04-14 02:13 | 32.91559 | -97.03125 | 618 ft | 10 kts | 90° |
| 2026-04-14 02:14 | 32.91558 | -97.03063 | 613 ft | 8 kts | 89° |
| 2026-04-14 02:14 | 32.91558 | -97.03014 | 618 ft | 4 kts | 100° |
| 2026-04-14 02:14 | 32.91538 | -97.02991 | 623 ft | 4 kts | 165° |
| 2026-04-14 02:14 | 32.91501 | -97.02990 | 623 ft | 7 kts | 180° |
| 2026-04-14 02:15 | 32.91286 | -97.02990 | 614 ft | 60 kts | 180° |
| 2026-04-14 02:15 | 32.90677 | -97.02994 | 615 ft | 113 kts | 180° |
| 2026-04-14 02:15 | 32.89722 | -97.02998 | 615 ft | 158 kts | 180° |
| 2026-04-14 02:15 | 32.88559 | -97.03026 | 975 ft | 167 kts | 178° |
| 2026-04-14 02:16 | 32.87394 | -97.03041 | 1508 ft | 167 kts | 180° |
| 2026-04-14 02:16 | 32.86257 | -97.03048 | 2226 ft | 159 kts | 181° |
| 2026-04-14 02:16 | 32.85155 | -97.02981 | 2720 ft | 164 kts | 169° |
| 2026-04-14 02:16 | 32.84050 | -97.02440 | 3000 ft | 179 kts | 159° |
| 2026-04-14 02:17 | 32.82882 | -97.01758 | 3240 ft | 193 kts | 159° |
| 2026-04-14 02:17 | 32.81637 | -97.01097 | 3495 ft | 204 kts | 162° |
| 2026-04-14 02:17 | 32.80284 | -97.00456 | 3804 ft | 216 kts | 163° |
| 2026-04-14 02:17 | 32.78835 | -96.99713 | 3973 ft | 240 kts | 150° |
| 2026-04-14 02:18 | 32.77736 | -96.98111 | 4260 ft | 266 kts | 116° |
| 2026-04-14 02:18 | 32.77181 | -96.95960 | 4793 ft | 274 kts | 112° |
| 2026-04-14 02:18 | 32.76702 | -96.93736 | 5364 ft | 282 kts | 103° |
| 2026-04-14 02:18 | 32.76589 | -96.91375 | 5924 ft | 292 kts | 88° |
| 2026-04-14 02:19 | 32.76750 | -96.88943 | 6513 ft | 297 kts | 90° |
| 2026-04-14 02:19 | 32.76839 | -96.86479 | 7110 ft | 300 kts | 89° |
| 2026-04-14 02:19 | 32.77395 | -96.84077 | 7682 ft | 307 kts | 58° |
| 2026-04-14 02:19 | 32.78866 | -96.82314 | 8261 ft | 307 kts | 26° |
| 2026-04-14 02:20 | 32.80888 | -96.81604 | 8918 ft | 301 kts | 2° |
| 2026-04-14 02:20 | 32.82971 | -96.81349 | 9615 ft | 302 kts | 4° |
| 2026-04-14 02:20 | 32.85064 | -96.81048 | 10207 ft | 304 kts | 3° |
| 2026-04-14 02:20 | 32.87205 | -96.80861 | 10577 ft | 315 kts | 358° |
| 2026-04-14 02:21 | 32.89447 | -96.80846 | 10841 ft | 329 kts | 356° |
| 2026-04-14 02:21 | 32.91786 | -96.80873 | 11101 ft | 343 kts | 356° |
| 2026-04-14 02:21 | 32.94193 | -96.80893 | 11350 ft | 358 kts | 356° |
| 2026-04-14 02:21 | 32.96768 | -96.80899 | 11605 ft | 373 kts | 357° |
| 2026-04-14 02:22 | 32.99371 | -96.80900 | 11868 ft | 386 kts | 356° |
| 2026-04-14 02:22 | 33.02101 | -96.80964 | 12278 ft | 395 kts | 355° |
| 2026-04-14 02:22 | 33.04852 | -96.81053 | 12912 ft | 397 kts | 355° |
| 2026-04-14 02:22 | 33.07614 | -96.81144 | 13618 ft | 398 kts | 355° |
| 2026-04-14 02:23 | 33.10393 | -96.81233 | 14220 ft | 401 kts | 355° |
| 2026-04-14 02:23 | 33.13201 | -96.81323 | 14745 ft | 405 kts | 355° |
| 2026-04-14 02:23 | 33.16036 | -96.81411 | 15244 ft | 409 kts | 355° |
| 2026-04-14 02:23 | 33.18897 | -96.81499 | 15711 ft | 414 kts | 355° |
| 2026-04-14 02:24 | 33.21756 | -96.81587 | 16215 ft | 418 kts | 355° |
| 2026-04-14 02:24 | 33.24677 | -96.81676 | 16708 ft | 422 kts | 355° |
| 2026-04-14 02:24 | 33.27805 | -96.81772 | 17223 ft | 427 kts | 354° |
| 2026-04-14 02:24 | 33.37557 | -96.82070 | 18788 ft | 439 kts | 354° |
| 2026-04-14 02:25 | 33.40624 | -96.82163 | 19189 ft | 443 kts | 355° |
| 2026-04-14 02:25 | 33.43720 | -96.81947 | 19605 ft | 451 kts | 5° |
| 2026-04-14 02:25 | 33.46792 | -96.81036 | 20053 ft | 458 kts | 16° |
| 2026-04-14 02:25 | 33.49719 | -96.79473 | 20514 ft | 464 kts | 24° |
| 2026-04-14 02:26 | 33.52539 | -96.77670 | 20968 ft | 467 kts | 26° |
| 2026-04-14 02:26 | 33.55401 | -96.75787 | 21374 ft | 471 kts | 26° |
| 2026-04-14 02:26 | 33.58291 | -96.73888 | 21798 ft | 474 kts | 25° |
| 2026-04-14 02:26 | 33.61198 | -96.71992 | 22213 ft | 477 kts | 25° |
| 2026-04-14 02:27 | 33.64121 | -96.70097 | 22631 ft | 480 kts | 25° |
| 2026-04-14 02:27 | 33.67071 | -96.68192 | 23036 ft | 482 kts | 25° |
| 2026-04-14 02:27 | 33.70038 | -96.66279 | 23435 ft | 485 kts | 25° |
| 2026-04-14 02:27 | 33.72980 | -96.64383 | 23781 ft | 488 kts | 25° |
| 2026-04-14 02:28 | 33.75984 | -96.62448 | 24059 ft | 491 kts | 25° |
| 2026-04-14 02:28 | 33.79000 | -96.60502 | 24391 ft | 493 kts | 25° |
| 2026-04-14 02:28 | 33.82036 | -96.58541 | 24705 ft | 497 kts | 25° |
| 2026-04-14 02:28 | 33.85086 | -96.56572 | 25029 ft | 500 kts | 25° |
| 2026-04-14 02:29 | 33.88158 | -96.54586 | 25418 ft | 502 kts | 25° |
| 2026-04-14 02:29 | 33.91244 | -96.52589 | 25777 ft | 505 kts | 25° |
| 2026-04-14 02:29 | 33.94352 | -96.50577 | 26142 ft | 508 kts | 25° |
| 2026-04-14 02:29 | 33.97430 | -96.48582 | 26486 ft | 511 kts | 25° |
| 2026-04-14 02:30 | 34.00567 | -96.46546 | 26833 ft | 513 kts | 25° |
| 2026-04-14 02:30 | 34.03720 | -96.44499 | 27177 ft | 516 kts | 25° |
| 2026-04-14 02:30 | 34.06848 | -96.42349 | 27514 ft | 520 kts | 28° |
| 2026-04-14 02:30 | 34.09911 | -96.39988 | 27784 ft | 525 kts | 30° |
| 2026-04-14 02:31 | 34.12957 | -96.37526 | 28092 ft | 528 kts | 31° |
| 2026-04-14 02:31 | 34.15998 | -96.35034 | 28515 ft | 528 kts | 31° |
| 2026-04-14 02:31 | 34.19032 | -96.32540 | 29017 ft | 526 kts | 31° |
| 2026-04-14 02:31 | 34.22014 | -96.30092 | 29504 ft | 525 kts | 31° |
| 2026-04-14 02:32 | 34.25038 | -96.27613 | 29998 ft | 525 kts | 31° |
| 2026-04-14 02:32 | 34.28062 | -96.25136 | 30415 ft | 524 kts | 31° |
| 2026-04-14 02:32 | 34.31087 | -96.22658 | 30818 ft | 524 kts | 31° |
| 2026-04-14 02:32 | 34.34104 | -96.20186 | 31215 ft | 524 kts | 30° |
| 2026-04-14 02:33 | 34.37135 | -96.17702 | 31481 ft | 526 kts | 30° |
| 2026-04-14 02:33 | 34.40169 | -96.15213 | 31737 ft | 527 kts | 30° |
| 2026-04-14 02:33 | 34.43205 | -96.12720 | 31996 ft | 528 kts | 30° |
| 2026-04-14 02:34 | 34.49244 | -96.07755 | 32538 ft | 528 kts | 30° |
| 2026-04-14 02:34 | 34.52279 | -96.05255 | 32962 ft | 525 kts | 30° |
| 2026-04-14 02:34 | 34.55290 | -96.02772 | 33372 ft | 523 kts | 30° |
| 2026-04-14 02:34 | 34.58301 | -96.00288 | 33689 ft | 523 kts | 30° |
| 2026-04-14 02:35 | 34.61323 | -95.97796 | 33915 ft | 526 kts | 30° |
| 2026-04-14 02:35 | 34.64368 | -95.95284 | 34053 ft | 530 kts | 30° |
| 2026-04-14 02:35 | 34.67424 | -95.92758 | 34242 ft | 531 kts | 30° |
| 2026-04-14 02:35 | 34.70478 | -95.90229 | 34429 ft | 532 kts | 30° |
| 2026-04-14 02:36 | 34.73499 | -95.87726 | 34603 ft | 533 kts | 30° |
| 2026-04-14 02:36 | 34.76563 | -95.85184 | 34790 ft | 534 kts | 30° |
| 2026-04-14 02:36 | 34.79636 | -95.82633 | 34967 ft | 534 kts | 30° |
| 2026-04-14 02:37 | 34.85703 | -95.77370 | 35034 ft | 538 kts | 34° |
| 2026-04-14 02:37 | 34.91459 | -95.71464 | 35021 ft | 541 kts | 38° |
| 2026-04-14 02:38 | 34.97091 | -95.65483 | 35008 ft | 539 kts | 38° |
| 2026-04-14 02:38 | 35.02756 | -95.59477 | 35003 ft | 538 kts | 37° |
| 2026-04-14 02:39 | 35.08417 | -95.53486 | 34997 ft | 538 kts | 37° |
| 2026-04-14 02:39 | 35.14564 | -95.46974 | 35018 ft | 541 kts | 37° |
| 2026-04-14 02:40 | 35.41644 | -95.18133 | 35026 ft | 540 kts | 37° |
| 2026-04-14 02:40 | 35.52476 | -95.06526 | 35024 ft | 543 kts | 37° |
| 2026-04-14 02:41 | 35.63847 | -94.94291 | 35008 ft | 543 kts | 37° |
| 2026-04-14 02:41 | 35.75137 | -94.82093 | 35025 ft | 540 kts | 37° |
| 2026-04-14 02:42 | 35.87652 | -94.68520 | 35024 ft | 540 kts | 37° |
| 2026-04-14 02:42 | 36.03127 | -94.51647 | 35029 ft | 539 kts | 37° |
| 2026-04-14 02:43 | 36.15832 | -94.37733 | 35033 ft | 538 kts | 37° |
| 2026-04-14 02:43 | 36.27339 | -94.25074 | 35025 ft | 538 kts | 38° |
| 2026-04-14 02:44 | 36.38856 | -94.12343 | 35030 ft | 536 kts | 37° |
| 2026-04-14 02:44 | 36.50264 | -93.99640 | 35030 ft | 536 kts | 40° |
| 2026-04-14 02:45 | 36.60902 | -93.86336 | 35009 ft | 537 kts | 42° |
| 2026-04-14 02:45 | 36.71788 | -93.72581 | 35024 ft | 536 kts | 42° |
| 2026-04-14 02:46 | 36.82425 | -93.59112 | 35019 ft | 535 kts | 42° |
| 2026-04-14 02:46 | 36.92877 | -93.45823 | 35009 ft | 535 kts | 42° |
| 2026-04-14 02:47 | 37.03529 | -93.32225 | 34988 ft | 536 kts | 42° |
| 2026-04-14 02:47 | 37.14086 | -93.18688 | 34989 ft | 536 kts | 42° |
| 2026-04-14 02:48 | 37.24614 | -93.05135 | 34978 ft | 539 kts | 43° |
| 2026-04-14 02:48 | 37.35169 | -92.91482 | 34972 ft | 536 kts | 43° |
| 2026-04-14 02:49 | 37.45550 | -92.78001 | 35017 ft | 537 kts | 42° |
| 2026-04-14 02:49 | 37.56023 | -92.64338 | 35011 ft | 540 kts | 42° |
| 2026-04-14 02:50 | 37.66484 | -92.50638 | 35021 ft | 538 kts | 42° |
| 2026-04-14 02:50 | 37.76937 | -92.36886 | 34976 ft | 542 kts | 42° |
| 2026-04-14 02:51 | 37.87373 | -92.23098 | 34979 ft | 539 kts | 42° |
| 2026-04-14 02:51 | 37.97734 | -92.09347 | 34978 ft | 540 kts | 42° |
| 2026-04-14 02:52 | 38.08116 | -91.95511 | 34971 ft | 541 kts | 42° |
| 2026-04-14 02:52 | 38.18438 | -91.81692 | 35039 ft | 538 kts | 42° |
| 2026-04-14 02:53 | 38.28730 | -91.67854 | 34999 ft | 538 kts | 42° |
| 2026-04-14 02:53 | 38.39007 | -91.53973 | 34964 ft | 538 kts | 42° |
| 2026-04-14 02:54 | 38.49374 | -91.39907 | 34959 ft | 536 kts | 42° |
| 2026-04-14 02:54 | 38.59639 | -91.25919 | 34971 ft | 536 kts | 42° |
| 2026-04-14 02:55 | 38.70099 | -91.11602 | 34945 ft | 537 kts | 43° |
| 2026-04-14 02:55 | 38.80334 | -90.97524 | 34938 ft | 536 kts | 43° |
| 2026-04-14 02:56 | 38.90527 | -90.83445 | 34946 ft | 537 kts | 43° |
| 2026-04-14 02:56 | 39.00638 | -90.69412 | 34950 ft | 535 kts | 43° |
| 2026-04-14 02:57 | 39.10901 | -90.55104 | 34951 ft | 535 kts | 43° |
| 2026-04-14 02:57 | 39.21130 | -90.40780 | 34946 ft | 535 kts | 43° |
| 2026-04-14 02:58 | 39.31409 | -90.26316 | 34933 ft | 533 kts | 43° |
| 2026-04-14 02:58 | 39.41489 | -90.12066 | 34937 ft | 533 kts | 44° |
| 2026-04-14 02:59 | 39.51660 | -89.97491 | 34934 ft | 534 kts | 45° |
| 2026-04-14 02:59 | 39.61405 | -89.82504 | 34930 ft | 536 kts | 46° |
| 2026-04-14 03:00 | 39.71112 | -89.67514 | 34943 ft | 536 kts | 46° |
| 2026-04-14 03:00 | 39.81040 | -89.52128 | 34981 ft | 536 kts | 46° |
| 2026-04-14 03:01 | 39.90766 | -89.36979 | 34939 ft | 535 kts | 46° |
| 2026-04-14 03:01 | 40.00301 | -89.22055 | 34924 ft | 535 kts | 46° |
| 2026-04-14 03:02 | 40.09827 | -89.07075 | 34941 ft | 533 kts | 46° |
| 2026-04-14 03:02 | 40.19465 | -88.91847 | 34937 ft | 533 kts | 46° |
| 2026-04-14 03:03 | 40.28968 | -88.76752 | 34948 ft | 532 kts | 46° |
| 2026-04-14 03:03 | 40.38489 | -88.61563 | 34939 ft | 532 kts | 46° |
| 2026-04-14 03:04 | 40.47933 | -88.46420 | 34951 ft | 532 kts | 47° |
| 2026-04-14 03:04 | 40.57419 | -88.31133 | 34941 ft | 531 kts | 47° |
| 2026-04-14 03:05 | 40.66800 | -88.15940 | 34924 ft | 531 kts | 47° |
| 2026-04-14 03:05 | 40.76106 | -88.00792 | 34920 ft | 529 kts | 47° |
| 2026-04-14 03:06 | 40.85450 | -87.85511 | 34921 ft | 529 kts | 47° |
| 2026-04-14 03:06 | 40.95051 | -87.69728 | 34914 ft | 529 kts | 47° |
| 2026-04-14 03:07 | 41.04257 | -87.54516 | 34915 ft | 527 kts | 47° |
| 2026-04-14 03:07 | 41.13470 | -87.39221 | 34914 ft | 528 kts | 47° |
| 2026-04-14 03:08 | 41.22873 | -87.23526 | 34917 ft | 525 kts | 47° |
| 2026-04-14 03:08 | 41.32035 | -87.08161 | 34941 ft | 525 kts | 47° |
| 2026-04-14 03:09 | 41.41290 | -86.92557 | 34932 ft | 526 kts | 47° |
| 2026-04-14 03:09 | 41.50244 | -86.77384 | 34941 ft | 523 kts | 48° |
| 2026-04-14 03:10 | 41.59477 | -86.61659 | 34944 ft | 525 kts | 48° |
| 2026-04-14 03:10 | 41.68632 | -86.45988 | 34969 ft | 523 kts | 48° |
| 2026-04-14 03:11 | 41.77579 | -86.30124 | 34971 ft | 527 kts | 53° |
| 2026-04-14 03:11 | 41.85214 | -86.12804 | 34975 ft | 527 kts | 57° |
| 2026-04-14 03:12 | 41.92558 | -85.95838 | 34984 ft | 527 kts | 56° |
| 2026-04-14 03:12 | 41.99951 | -85.78738 | 34993 ft | 528 kts | 57° |
| 2026-04-14 03:13 | 42.07306 | -85.61631 | 34990 ft | 528 kts | 57° |
| 2026-04-14 03:13 | 42.14649 | -85.44446 | 34979 ft | 529 kts | 57° |
| 2026-04-14 03:14 | 42.22027 | -85.27084 | 34986 ft | 528 kts | 57° |
| 2026-04-14 03:14 | 42.29395 | -85.09645 | 34985 ft | 528 kts | 57° |
| 2026-04-14 03:15 | 42.36687 | -84.92277 | 34986 ft | 528 kts | 57° |
| 2026-04-14 03:15 | 42.43993 | -84.74779 | 34984 ft | 528 kts | 57° |
| 2026-04-14 03:16 | 42.51639 | -84.56358 | 35016 ft | 527 kts | 57° |
| 2026-04-14 03:16 | 42.58986 | -84.38532 | 35010 ft | 527 kts | 57° |
| 2026-04-14 03:17 | 42.66525 | -84.20149 | 35010 ft | 527 kts | 58° |
| 2026-04-14 03:17 | 42.77408 | -83.93364 | 35011 ft | 527 kts | 58° |
| 2026-04-14 03:18 | 42.84745 | -83.75179 | 34992 ft | 528 kts | 58° |
| 2026-04-14 03:18 | 42.91895 | -83.57351 | 35003 ft | 530 kts | 59° |
| 2026-04-14 03:19 | 42.99016 | -83.39462 | 34998 ft | 532 kts | 58° |
| 2026-04-14 03:19 | 43.06197 | -83.21362 | 35000 ft | 532 kts | 59° |
| 2026-04-14 03:20 | 43.13311 | -83.03246 | 35004 ft | 539 kts | 59° |
| 2026-04-14 03:20 | 43.20419 | -82.85073 | 35007 ft | 539 kts | 59° |
| 2026-04-14 03:21 | 43.27927 | -82.66819 | 35017 ft | 544 kts | 53° |
| 2026-04-14 03:21 | 43.36361 | -82.49533 | 35013 ft | 543 kts | 53° |
| 2026-04-14 03:22 | 43.44735 | -82.32191 | 35007 ft | 541 kts | 53° |
| 2026-04-14 03:22 | 43.53166 | -82.14607 | 35015 ft | 541 kts | 53° |
| 2026-04-14 03:23 | 43.61479 | -81.97150 | 35014 ft | 544 kts | 53° |
| 2026-04-14 03:23 | 43.69916 | -81.79336 | 35021 ft | 544 kts | 53° |
| 2026-04-14 03:24 | 43.78307 | -81.61493 | 35027 ft | 546 kts | 52° |
| 2026-04-14 03:24 | 43.86561 | -81.43854 | 35028 ft | 545 kts | 53° |
| 2026-04-14 03:25 | 43.95336 | -81.24980 | 35040 ft | 550 kts | 53° |
| 2026-04-14 03:25 | 44.02378 | -81.09735 | 35046 ft | 546 kts | 53° |
| 2026-04-14 03:26 | 44.23373 | -80.63822 | 35093 ft | 546 kts | 53° |
| 2026-04-14 03:26 | 44.34788 | -80.38538 | 35067 ft | 548 kts | 53° |
| 2026-04-14 03:27 | 44.38847 | -80.29500 | 35072 ft | 548 kts | 53° |
| 2026-04-14 03:27 | 44.42898 | -80.20453 | 35071 ft | 548 kts | 53° |
| 2026-04-14 03:28 | 44.46905 | -80.11460 | 35070 ft | 547 kts | 52° |
| 2026-04-14 03:28 | 44.50894 | -80.02489 | 35068 ft | 545 kts | 52° |
| 2026-04-14 03:29 | 44.54836 | -79.93607 | 35071 ft | 545 kts | 52° |
| 2026-04-14 03:29 | 44.58842 | -79.84543 | 35084 ft | 547 kts | 52° |
| 2026-04-14 03:30 | 44.62828 | -79.75499 | 35074 ft | 548 kts | 52° |
| 2026-04-14 03:30 | 44.68915 | -79.61620 | 35081 ft | 545 kts | 52° |
| 2026-04-14 03:31 | 44.89157 | -79.15001 | 35069 ft | 545 kts | 52° |
| 2026-04-14 03:31 | 45.08699 | -78.69247 | 35062 ft | 544 kts | 52° |
| 2026-04-14 03:32 | 45.28457 | -78.22224 | 35073 ft | 544 kts | 52° |
| 2026-04-14 03:32 | 45.48197 | -77.74461 | 35082 ft | 545 kts | 52° |
| 2026-04-14 03:33 | 45.68034 | -77.26612 | 35107 ft | 544 kts | 50° |
| 2026-04-14 03:33 | 45.88144 | -76.78653 | 35078 ft | 547 kts | 50° |
| 2026-04-14 03:34 | 46.17928 | -76.06019 | 35056 ft | 547 kts | 50° |
| 2026-04-14 03:35 | 46.37056 | -75.58336 | 35043 ft | 548 kts | 50° |
| 2026-04-14 03:35 | 46.56056 | -75.10127 | 35031 ft | 547 kts | 50° |
| 2026-04-14 03:36 | 46.75056 | -74.61059 | 35021 ft | 547 kts | 50° |
| 2026-04-14 03:36 | 46.93623 | -74.12244 | 35026 ft | 545 kts | 51° |
| 2026-04-14 03:37 | 47.11985 | -73.63081 | 34995 ft | 542 kts | 53° |
| 2026-04-14 03:37 | 47.30032 | -73.13845 | 34981 ft | 537 kts | 54° |
| 2026-04-14 03:38 | 47.47306 | -72.65839 | 34969 ft | 537 kts | 55° |
| 2026-04-14 03:38 | 47.61343 | -72.26186 | 34946 ft | 538 kts | 55° |
| 2026-04-14 03:39 | 47.65653 | -72.13886 | 34941 ft | 538 kts | 55° |
| 2026-04-14 03:39 | 47.81497 | -71.68181 | 34911 ft | 535 kts | 56° |
| 2026-04-14 03:40 | 47.98017 | -71.19650 | 34934 ft | 534 kts | 58° |
| 2026-04-14 03:40 | 48.14892 | -70.69122 | 34920 ft | 535 kts | 59° |
| 2026-04-14 03:41 | 48.27695 | -70.30098 | 34910 ft | 536 kts | 59° |
| 2026-04-14 03:41 | 48.30969 | -70.20027 | 34866 ft | 536 kts | 59° |
| 2026-04-14 03:42 | 48.34212 | -70.10003 | 34856 ft | 536 kts | 59° |
| 2026-04-14 03:42 | 48.37474 | -69.99882 | 34853 ft | 536 kts | 59° |
| 2026-04-14 03:43 | 48.40726 | -69.89752 | 34856 ft | 537 kts | 59° |
| 2026-04-14 03:43 | 48.43970 | -69.79617 | 34855 ft | 537 kts | 60° |
| 2026-04-14 03:44 | 48.47180 | -69.69530 | 34855 ft | 538 kts | 60° |
| 2026-04-14 03:44 | 48.50415 | -69.59334 | 34845 ft | 539 kts | 60° |
| 2026-04-14 03:45 | 48.53642 | -69.49115 | 34833 ft | 539 kts | 60° |
| 2026-04-14 03:45 | 48.56858 | -69.38842 | 35056 ft | 542 kts | 61° |
| 2026-04-14 03:45 | 48.58415 | -69.33675 | 35465 ft | 539 kts | 62° |
| 2026-04-14 03:46 | 48.59928 | -69.28583 | 35821 ft | 537 kts | 62° |
| 2026-04-14 03:46 | 48.61477 | -69.23352 | 36163 ft | 537 kts | 62° |
| 2026-04-14 03:46 | 48.62982 | -69.18271 | 36489 ft | 537 kts | 61° |
| 2026-04-14 03:46 | 48.64511 | -69.13112 | 36761 ft | 536 kts | 62° |
| 2026-04-14 03:47 | 48.66037 | -69.07975 | 36820 ft | 535 kts | 62° |
| 2026-04-14 03:47 | 48.69082 | -68.97667 | 36820 ft | 534 kts | 62° |
| 2026-04-14 03:48 | 48.72107 | -68.87395 | 36833 ft | 534 kts | 62° |
| 2026-04-14 03:48 | 48.75099 | -68.77181 | 36819 ft | 534 kts | 62° |
| 2026-04-14 03:49 | 48.78106 | -68.66873 | 36819 ft | 534 kts | 62° |
| 2026-04-14 03:49 | 48.81107 | -68.56545 | 36819 ft | 534 kts | 62° |
| 2026-04-14 03:50 | 48.84098 | -68.46225 | 36821 ft | 533 kts | 63° |
| 2026-04-14 03:50 | 48.87053 | -68.35971 | 36816 ft | 533 kts | 63° |
| 2026-04-14 03:51 | 48.90019 | -68.25624 | 36806 ft | 533 kts | 63° |
| 2026-04-14 03:51 | 48.92977 | -68.15264 | 36802 ft | 533 kts | 63° |
| 2026-04-14 03:52 | 48.95928 | -68.04890 | 36800 ft | 534 kts | 63° |
| 2026-04-14 03:52 | 48.98848 | -67.94578 | 36800 ft | 534 kts | 64° |
| 2026-04-14 03:53 | 49.01782 | -67.84194 | 36791 ft | 533 kts | 64° |
| 2026-04-14 03:53 | 49.04696 | -67.73806 | 36792 ft | 532 kts | 64° |
| 2026-04-14 03:54 | 49.07603 | -67.63402 | 36795 ft | 532 kts | 64° |
| 2026-04-14 03:54 | 49.10479 | -67.53064 | 36795 ft | 532 kts | 64° |
| 2026-04-14 03:55 | 49.13372 | -67.42631 | 36804 ft | 533 kts | 65° |
| 2026-04-14 03:55 | 49.16259 | -67.32166 | 36791 ft | 534 kts | 65° |
| 2026-04-14 03:56 | 49.19135 | -67.21700 | 36780 ft | 533 kts | 65° |
| 2026-04-14 03:56 | 49.21975 | -67.11309 | 36781 ft | 533 kts | 65° |
| 2026-04-14 03:57 | 49.24829 | -67.00820 | 36817 ft | 533 kts | 65° |
| 2026-04-14 03:57 | 49.27673 | -66.90333 | 36786 ft | 534 kts | 65° |
| 2026-04-14 03:58 | 49.30512 | -66.79804 | 36779 ft | 534 kts | 65° |
| 2026-04-14 03:58 | 49.33325 | -66.69329 | 36769 ft | 534 kts | 66° |
| 2026-04-14 03:59 | 49.36144 | -66.58781 | 36767 ft | 534 kts | 66° |
| 2026-04-14 03:59 | 49.38958 | -66.48213 | 36794 ft | 534 kts | 66° |
| 2026-04-14 04:00 | 49.41764 | -66.37625 | 36772 ft | 535 kts | 66° |
| 2026-04-14 04:00 | 49.44541 | -66.27092 | 36776 ft | 535 kts | 66° |
| 2026-04-14 04:01 | 49.47328 | -66.16470 | 36763 ft | 535 kts | 66° |
| 2026-04-14 04:01 | 49.49639 | -66.07630 | 36758 ft | 535 kts | 66° |
| 2026-04-14 04:02 | 49.52414 | -65.96977 | 36767 ft | 536 kts | 66° |
| 2026-04-14 04:02 | 49.55629 | -65.84561 | 36760 ft | 537 kts | 67° |
| 2026-04-14 04:03 | 49.58387 | -65.73852 | 36753 ft | 537 kts | 67° |
| 2026-04-14 04:03 | 49.61133 | -65.63141 | 36748 ft | 537 kts | 67° |
| 2026-04-14 04:04 | 49.63410 | -65.54224 | 36747 ft | 537 kts | 67° |
| 2026-04-14 04:04 | 49.66139 | -65.43495 | 36757 ft | 537 kts | 67° |
| 2026-04-14 04:05 | 49.68864 | -65.32718 | 36743 ft | 539 kts | 67° |
| 2026-04-14 04:05 | 49.71569 | -65.21976 | 36742 ft | 539 kts | 67° |
| 2026-04-14 04:06 | 49.74282 | -65.11153 | 36746 ft | 539 kts | 67° |
| 2026-04-14 04:06 | 49.76986 | -65.00311 | 36736 ft | 539 kts | 68° |
| 2026-04-14 04:07 | 49.79679 | -64.89460 | 36741 ft | 541 kts | 68° |
| 2026-04-14 04:07 | 49.82350 | -64.78646 | 36738 ft | 541 kts | 68° |
| 2026-04-14 04:08 | 49.85027 | -64.67743 | 36728 ft | 541 kts | 68° |
| 2026-04-14 04:08 | 49.87700 | -64.56814 | 36731 ft | 541 kts | 68° |
| 2026-04-14 04:09 | 49.90363 | -64.45878 | 36744 ft | 542 kts | 68° |
| 2026-04-14 04:09 | 49.93000 | -64.34989 | 36727 ft | 542 kts | 68° |
| 2026-04-14 04:10 | 49.95644 | -64.24014 | 36721 ft | 542 kts | 68° |
| 2026-04-14 04:10 | 49.98277 | -64.13030 | 36721 ft | 542 kts | 68° |
| 2026-04-14 04:11 | 50.00909 | -64.01995 | 36714 ft | 542 kts | 68° |
| 2026-04-14 04:11 | 50.03515 | -63.91012 | 36733 ft | 542 kts | 68° |
| 2026-04-14 04:12 | 50.06101 | -63.80063 | 36720 ft | 542 kts | 68° |
| 2026-04-14 04:12 | 50.08695 | -63.69024 | 36713 ft | 542 kts | 68° |
| 2026-04-14 04:13 | 50.11277 | -63.57974 | 36711 ft | 542 kts | 68° |
| 2026-04-14 04:13 | 50.13850 | -63.46909 | 36711 ft | 542 kts | 69° |
| 2026-04-14 04:14 | 50.16396 | -63.35910 | 36710 ft | 542 kts | 69° |
| 2026-04-14 04:14 | 50.18944 | -63.24833 | 36710 ft | 542 kts | 69° |
| 2026-04-14 04:15 | 50.21481 | -63.13750 | 36705 ft | 542 kts | 69° |
| 2026-04-14 04:15 | 50.24008 | -63.02652 | 36705 ft | 542 kts | 69° |
| 2026-04-14 04:16 | 50.26507 | -62.91621 | 36704 ft | 542 kts | 69° |
| 2026-04-14 04:16 | 50.29014 | -62.80500 | 36702 ft | 542 kts | 69° |
| 2026-04-14 04:17 | 50.31512 | -62.69367 | 36690 ft | 541 kts | 69° |
| 2026-04-14 04:17 | 50.33991 | -62.58244 | 36700 ft | 541 kts | 70° |
| 2026-04-14 04:18 | 50.36445 | -62.47179 | 36701 ft | 540 kts | 70° |
| 2026-04-14 04:18 | 50.38902 | -62.36035 | 36726 ft | 541 kts | 70° |
| 2026-04-14 04:19 | 50.41354 | -62.24863 | 36705 ft | 541 kts | 70° |
| 2026-04-14 04:19 | 50.43797 | -62.13668 | 36702 ft | 541 kts | 70° |
| 2026-04-14 04:20 | 50.46227 | -62.02475 | 36686 ft | 541 kts | 70° |
| 2026-04-14 04:20 | 50.48627 | -61.91359 | 36700 ft | 541 kts | 70° |
| 2026-04-14 04:21 | 50.51035 | -61.80142 | 36723 ft | 541 kts | 70° |
| 2026-04-14 04:21 | 50.53435 | -61.68902 | 36705 ft | 542 kts | 70° |
| 2026-04-14 04:22 | 50.55827 | -61.57641 | 36703 ft | 542 kts | 70° |
| 2026-04-14 04:22 | 50.58191 | -61.46444 | 36697 ft | 542 kts | 70° |
| 2026-04-14 04:23 | 50.60560 | -61.35161 | 36684 ft | 542 kts | 70° |
| 2026-04-14 04:23 | 50.62914 | -61.23887 | 36716 ft | 542 kts | 70° |
| 2026-04-14 04:24 | 50.65264 | -61.12571 | 36703 ft | 543 kts | 71° |
| 2026-04-14 04:24 | 50.67587 | -61.01324 | 36707 ft | 543 kts | 71° |
| 2026-04-14 04:25 | 50.69913 | -60.89998 | 36700 ft | 543 kts | 71° |
| 2026-04-14 04:25 | 50.72231 | -60.78643 | 36709 ft | 543 kts | 71° |
| 2026-04-14 04:26 | 50.74535 | -60.67288 | 36699 ft | 543 kts | 71° |
| 2026-04-14 04:26 | 50.76823 | -60.55962 | 36714 ft | 544 kts | 71° |
| 2026-04-14 04:27 | 50.79110 | -60.44559 | 36718 ft | 544 kts | 71° |
| 2026-04-14 04:27 | 50.81389 | -60.33133 | 36720 ft | 544 kts | 71° |
| 2026-04-14 04:28 | 50.83656 | -60.21697 | 36721 ft | 544 kts | 72° |
| 2026-04-14 04:28 | 50.85911 | -60.10247 | 36734 ft | 545 kts | 71° |
| 2026-04-14 04:29 | 50.88143 | -59.98863 | 36726 ft | 545 kts | 72° |
| 2026-04-14 04:29 | 50.90381 | -59.87376 | 36732 ft | 545 kts | 72° |
| 2026-04-14 04:30 | 50.97851 | -59.48516 | 36736 ft | 545 kts | 72° |
| 2026-04-14 04:30 | 51.08916 | -58.89446 | 36747 ft | 545 kts | 72° |
| 2026-04-14 04:31 | 51.19721 | -58.29870 | 36754 ft | 545 kts | 72° |
| 2026-04-14 04:31 | 51.35317 | -57.40244 | 36811 ft | 545 kts | 73° |
| 2026-04-14 04:32 | 51.45306 | -56.80313 | 36838 ft | 543 kts | 73° |
| 2026-04-14 04:32 | 51.54932 | -56.20462 | 36861 ft | 543 kts | 73° |
| 2026-04-14 04:33 | 51.64122 | -55.61243 | 36884 ft | 542 kts | 73° |
| 2026-04-14 04:33 | 51.72996 | -55.01893 | 36913 ft | 541 kts | 74° |
| 2026-04-14 04:34 | 51.83223 | -54.41724 | 36924 ft | 534 kts | 60° |
| 2026-04-14 04:34 | 51.99158 | -53.86633 | 36916 ft | 530 kts | 60° |
| 2026-04-14 04:35 | 52.14818 | -53.30738 | 36932 ft | 530 kts | 60° |
| 2026-04-14 04:35 | 52.29914 | -52.75525 | 36934 ft | 527 kts | 60° |
| 2026-04-14 04:36 | 52.45252 | -52.18067 | 36930 ft | 527 kts | 60° |
| 2026-04-14 04:36 | 52.60397 | -51.59850 | 36946 ft | 527 kts | 61° |
| 2026-04-14 04:37 | 52.74987 | -51.02308 | 36926 ft | 526 kts | 61° |
| 2026-04-14 04:37 | 52.89344 | -50.44187 | 36911 ft | 521 kts | 61° |
| 2026-04-14 04:38 | 53.02096 | -49.86093 | 36892 ft | 527 kts | 71° |
| 2026-04-14 04:38 | 53.10693 | -49.24421 | 36884 ft | 523 kts | 71° |
| 2026-04-14 04:39 | 53.18978 | -48.63073 | 36868 ft | 519 kts | 71° |
| 2026-04-14 04:39 | 53.26891 | -48.01976 | 36861 ft | 517 kts | 72° |
| 2026-04-14 04:40 | 53.34404 | -47.41343 | 36844 ft | 514 kts | 73° |
| 2026-04-14 04:41 | 53.45102 | -46.49951 | 36813 ft | 510 kts | 73° |
| 2026-04-14 04:41 | 53.51771 | -45.89417 | 36800 ft | 501 kts | 74° |
| 2026-04-14 04:42 | 53.58078 | -45.29307 | 36771 ft | 496 kts | 74° |
| 2026-04-14 04:42 | 53.63894 | -44.70965 | 36741 ft | 492 kts | 75° |
| 2026-04-14 04:43 | 53.69392 | -44.12828 | 36712 ft | 492 kts | 76° |
| 2026-04-14 04:43 | 53.74664 | -43.53897 | 36685 ft | 491 kts | 77° |
| 2026-04-14 04:44 | 53.79656 | -42.94694 | 36666 ft | 488 kts | 78° |
| 2026-04-14 04:44 | 53.84313 | -42.35824 | 36643 ft | 487 kts | 79° |
| 2026-04-14 04:45 | 53.88704 | -41.76593 | 36596 ft | 486 kts | 79° |
| 2026-04-14 04:45 | 53.92768 | -41.17665 | 36579 ft | 483 kts | 80° |
| 2026-04-14 04:46 | 53.96533 | -40.58949 | 36528 ft | 481 kts | 81° |
| 2026-04-14 04:46 | 54.00006 | -40.01672 | 36509 ft | 480 kts | 78° |
| 2026-04-14 04:47 | 54.08016 | -39.43569 | 36478 ft | 477 kts | 73° |
| 2026-04-14 04:47 | 54.15863 | -38.86184 | 36453 ft | 475 kts | 75° |
| 2026-04-14 04:48 | 54.23385 | -38.28997 | 36410 ft | 475 kts | 76° |
| 2026-04-14 04:48 | 54.30629 | -37.71640 | 36382 ft | 474 kts | 77° |
| 2026-04-14 04:49 | 54.37602 | -37.14050 | 36361 ft | 473 kts | 78° |
| 2026-04-14 04:49 | 54.44282 | -36.56460 | 36332 ft | 474 kts | 79° |
| 2026-04-14 04:50 | 54.50665 | -35.98874 | 36298 ft | 475 kts | 79° |
| 2026-04-14 04:50 | 54.56800 | -35.40861 | 36280 ft | 476 kts | 81° |
| 2026-04-14 04:51 | 54.62742 | -34.81871 | 36257 ft | 478 kts | 81° |
| 2026-04-14 04:51 | 54.68351 | -34.23180 | 36235 ft | 478 kts | 83° |
| 2026-04-14 04:52 | 54.73715 | -33.63823 | 36217 ft | 479 kts | 83° |
| 2026-04-14 04:52 | 54.78781 | -33.04367 | 36195 ft | 480 kts | 84° |
| 2026-04-14 04:53 | 54.83581 | -32.44459 | 36186 ft | 482 kts | 85° |
| 2026-04-14 04:53 | 54.88059 | -31.84710 | 36143 ft | 482 kts | 85° |
| 2026-04-14 04:54 | 54.92297 | -31.24260 | 36131 ft | 484 kts | 88° |
| 2026-04-14 04:54 | 54.96228 | -30.63609 | 36143 ft | 486 kts | 88° |
| 2026-04-14 04:55 | 54.99866 | -30.02528 | 36145 ft | 488 kts | 89° |
| 2026-04-14 04:55 | 55.02271 | -29.41775 | 36139 ft | 488 kts | 91° |
| 2026-04-14 04:56 | 55.04350 | -28.80030 | 36136 ft | 487 kts | 92° |
| 2026-04-14 04:56 | 55.06122 | -28.18303 | 36141 ft | 489 kts | 91° |
| 2026-04-14 04:57 | 55.07583 | -27.56572 | 36134 ft | 489 kts | 93° |
| 2026-04-14 04:57 | 55.08715 | -26.95064 | 36158 ft | 492 kts | 93° |
| 2026-04-14 04:58 | 55.09558 | -26.32319 | 36171 ft | 493 kts | 94° |
| 2026-04-14 04:58 | 55.10073 | -25.70282 | 36200 ft | 493 kts | 95° |
| 2026-04-14 04:59 | 55.10272 | -25.07608 | 36218 ft | 494 kts | 95° |
| 2026-04-14 04:59 | 55.10153 | -24.45199 | 36228 ft | 496 kts | 96° |
| 2026-04-14 05:00 | 55.09704 | -23.81899 | 36255 ft | 498 kts | 97° |
| 2026-04-14 05:00 | 55.08938 | -23.19247 | 36272 ft | 500 kts | 98° |
| 2026-04-14 05:01 | 55.07841 | -22.56250 | 36286 ft | 500 kts | 98° |
| 2026-04-14 05:01 | 55.06422 | -21.93292 | 36317 ft | 502 kts | 99° |
| 2026-04-14 05:02 | 55.04650 | -21.29543 | 36330 ft | 504 kts | 99° |
| 2026-04-14 05:02 | 55.02528 | -20.65367 | 36361 ft | 508 kts | 100° |
| 2026-04-14 05:03 | 55.00104 | -20.00802 | 36356 ft | 512 kts | 97° |
| 2026-04-14 05:03 | 55.01163 | -19.35571 | 36408 ft | 522 kts | 94° |
| 2026-04-14 05:04 | 55.01664 | -18.99499 | 36433 ft | 524 kts | 94° |
| 2026-04-14 05:04 | 55.01810 | -18.86891 | 36415 ft | 523 kts | 94° |
| 2026-04-14 05:05 | 55.01942 | -18.74153 | 36446 ft | 526 kts | 94° |
| 2026-04-14 05:05 | 55.02067 | -18.61391 | 36462 ft | 526 kts | 94° |
| 2026-04-14 05:06 | 55.02179 | -18.48633 | 36460 ft | 526 kts | 94° |
| 2026-04-14 05:06 | 55.02278 | -18.35885 | 36471 ft | 525 kts | 94° |
| 2026-04-14 05:07 | 55.02357 | -18.23205 | 36456 ft | 526 kts | 94° |
| 2026-04-14 05:07 | 55.02429 | -18.10427 | 36467 ft | 527 kts | 94° |
| 2026-04-14 05:08 | 55.02488 | -17.97643 | 36484 ft | 527 kts | 94° |
| 2026-04-14 05:08 | 55.02533 | -17.84954 | 36481 ft | 526 kts | 94° |
| 2026-04-14 05:09 | 55.02562 | -17.72175 | 36464 ft | 527 kts | 94° |
| 2026-04-14 05:09 | 55.02576 | -17.59355 | 36473 ft | 529 kts | 94° |
| 2026-04-14 05:10 | 55.02581 | -17.46451 | 36488 ft | 533 kts | 95° |
| 2026-04-14 05:10 | 55.02572 | -17.33517 | 36504 ft | 533 kts | 95° |
| 2026-04-14 05:11 | 55.02548 | -17.20656 | 36517 ft | 533 kts | 95° |
| 2026-04-14 05:11 | 55.02509 | -17.07728 | 36510 ft | 533 kts | 95° |
| 2026-04-14 05:12 | 55.02456 | -16.94803 | 36522 ft | 533 kts | 95° |
| 2026-04-14 05:12 | 55.02390 | -16.81882 | 36531 ft | 532 kts | 95° |
| 2026-04-14 05:13 | 55.02310 | -16.68953 | 36518 ft | 532 kts | 95° |
| 2026-04-14 05:13 | 55.02213 | -16.56125 | 36533 ft | 533 kts | 95° |
| 2026-04-14 05:14 | 55.02107 | -16.43167 | 36525 ft | 534 kts | 95° |
| 2026-04-14 05:14 | 55.01990 | -16.30210 | 36538 ft | 534 kts | 95° |
| 2026-04-14 05:15 | 55.01858 | -16.17356 | 36550 ft | 533 kts | 95° |
| 2026-04-14 05:15 | 55.01711 | -16.04407 | 36558 ft | 533 kts | 95° |
| 2026-04-14 05:16 | 55.01543 | -15.91447 | 36558 ft | 535 kts | 95° |
| 2026-04-14 05:16 | 55.01368 | -15.78452 | 36563 ft | 536 kts | 95° |
| 2026-04-14 05:17 | 55.01180 | -15.65469 | 36575 ft | 536 kts | 95° |
| 2026-04-14 05:17 | 55.00978 | -15.52559 | 36574 ft | 536 kts | 95° |
| 2026-04-14 05:18 | 55.00757 | -15.39575 | 36575 ft | 536 kts | 95° |
| 2026-04-14 05:18 | 55.00526 | -15.26545 | 36581 ft | 537 kts | 95° |
| 2026-04-14 05:19 | 55.00284 | -15.13615 | 36594 ft | 537 kts | 95° |
| 2026-04-14 05:19 | 55.00030 | -15.00588 | 36603 ft | 537 kts | 94° |
| 2026-04-14 05:20 | 55.00032 | -14.87562 | 36591 ft | 538 kts | 92° |
| 2026-04-14 05:20 | 55.00079 | -14.74480 | 36612 ft | 539 kts | 92° |
| 2026-04-14 05:21 | 55.00109 | -14.61398 | 36610 ft | 539 kts | 92° |
| 2026-04-14 05:21 | 55.00117 | -14.48414 | 36619 ft | 539 kts | 92° |
| 2026-04-14 05:22 | 55.00107 | -14.35330 | 36619 ft | 539 kts | 93° |
| 2026-04-14 05:22 | 55.00078 | -14.22272 | 36638 ft | 538 kts | 92° |
| 2026-04-14 05:23 | 54.99788 | -14.09278 | 36641 ft | 535 kts | 98° |
| 2026-04-14 05:23 | 54.98639 | -13.96624 | 36646 ft | 531 kts | 107° |
| 2026-04-14 05:24 | 54.96599 | -13.84274 | 36639 ft | 531 kts | 115° |
| 2026-04-14 05:24 | 54.93962 | -13.72269 | 36645 ft | 531 kts | 116° |
| 2026-04-14 05:25 | 54.91283 | -13.60281 | 36653 ft | 531 kts | 116° |
| 2026-04-14 05:25 | 54.88637 | -13.48374 | 36656 ft | 531 kts | 116° |
| 2026-04-14 05:26 | 54.85967 | -13.36386 | 36658 ft | 531 kts | 116° |
| 2026-04-14 05:26 | 54.83291 | -13.24426 | 36668 ft | 531 kts | 116° |
| 2026-04-14 05:27 | 54.80599 | -13.12467 | 36627 ft | 531 kts | 116° |
| 2026-04-14 05:27 | 54.77883 | -13.00482 | 36665 ft | 535 kts | 116° |
| 2026-04-14 05:28 | 54.75170 | -12.88564 | 36671 ft | 535 kts | 116° |
| 2026-04-14 05:28 | 54.72425 | -12.76567 | 36682 ft | 535 kts | 116° |
| 2026-04-14 05:29 | 54.69667 | -12.64587 | 36677 ft | 535 kts | 116° |
| 2026-04-14 05:29 | 54.66900 | -12.52635 | 36688 ft | 535 kts | 116° |
| 2026-04-14 05:30 | 54.64136 | -12.40778 | 36681 ft | 535 kts | 116° |
| 2026-04-14 05:30 | 54.61339 | -12.28812 | 36684 ft | 540 kts | 117° |
| 2026-04-14 05:31 | 54.58502 | -12.16767 | 36689 ft | 542 kts | 117° |
| 2026-04-14 05:31 | 54.55649 | -12.04721 | 36702 ft | 542 kts | 117° |
| 2026-04-14 05:32 | 54.52801 | -11.92761 | 36702 ft | 542 kts | 117° |
| 2026-04-14 05:32 | 54.49920 | -11.80745 | 36707 ft | 542 kts | 117° |
| 2026-04-14 05:33 | 54.47030 | -11.68740 | 36707 ft | 543 kts | 117° |
| 2026-04-14 05:33 | 54.44128 | -11.56744 | 36678 ft | 544 kts | 117° |
| 2026-04-14 05:34 | 54.39734 | -11.38719 | 36709 ft | 548 kts | 117° |
| 2026-04-14 05:34 | 54.36772 | -11.26647 | 36726 ft | 548 kts | 117° |
| 2026-04-14 05:35 | 54.33799 | -11.14598 | 36719 ft | 548 kts | 117° |
| 2026-04-14 05:35 | 54.30814 | -11.02567 | 36728 ft | 548 kts | 117° |
| 2026-04-14 05:36 | 54.27833 | -10.90616 | 36728 ft | 548 kts | 117° |
| 2026-04-14 05:36 | 54.24821 | -10.78614 | 36710 ft | 549 kts | 117° |
| 2026-04-14 05:37 | 54.21795 | -10.66620 | 36730 ft | 549 kts | 117° |
| 2026-04-14 05:37 | 54.18774 | -10.54724 | 36717 ft | 549 kts | 117° |
| 2026-04-14 05:38 | 54.15730 | -10.42769 | 36723 ft | 548 kts | 117° |
| 2026-04-14 05:38 | 54.12673 | -10.30835 | 36718 ft | 548 kts | 117° |
| 2026-04-14 05:39 | 54.09604 | -10.18923 | 36729 ft | 548 kts | 117° |
| 2026-04-14 05:39 | 54.06544 | -10.07109 | 36707 ft | 549 kts | 118° |
| 2026-04-14 05:40 | 54.03428 | -9.95167 | 36725 ft | 551 kts | 117° |
| 2026-04-14 05:40 | 54.00309 | -9.83242 | 36746 ft | 551 kts | 117° |
| 2026-04-14 05:41 | 53.97179 | -9.71340 | 36746 ft | 551 kts | 117° |
| 2026-04-14 05:41 | 53.94037 | -9.59458 | 36761 ft | 551 kts | 117° |
| 2026-04-14 05:42 | 53.90904 | -9.47679 | 36762 ft | 551 kts | 118° |
| 2026-04-14 05:42 | 53.87731 | -9.35832 | 36741 ft | 551 kts | 117° |
| 2026-04-14 05:43 | 53.84550 | -9.23995 | 36774 ft | 552 kts | 117° |
| 2026-04-14 05:43 | 53.81355 | -9.12150 | 36771 ft | 552 kts | 117° |
| 2026-04-14 05:44 | 53.78168 | -9.00406 | 36769 ft | 552 kts | 117° |
| 2026-04-14 05:44 | 53.74944 | -8.88591 | 36772 ft | 552 kts | 117° |
| 2026-04-14 05:45 | 53.71709 | -8.76814 | 36776 ft | 552 kts | 117° |
| 2026-04-14 05:45 | 53.68470 | -8.65056 | 36781 ft | 552 kts | 117° |
| 2026-04-14 05:46 | 53.65239 | -8.53410 | 36789 ft | 550 kts | 117° |
| 2026-04-14 05:46 | 53.61990 | -8.41730 | 36797 ft | 550 kts | 117° |
| 2026-04-14 05:47 | 53.58724 | -8.30059 | 36811 ft | 550 kts | 117° |
| 2026-04-14 05:47 | 53.55453 | -8.18444 | 36806 ft | 548 kts | 117° |
| 2026-04-14 05:48 | 53.52203 | -8.06937 | 36814 ft | 548 kts | 117° |
| 2026-04-14 05:48 | 53.48910 | -7.95343 | 36814 ft | 548 kts | 117° |
| 2026-04-14 05:49 | 53.45619 | -7.83820 | 36803 ft | 545 kts | 117° |
| 2026-04-14 05:49 | 53.42329 | -7.72356 | 36823 ft | 544 kts | 117° |
| 2026-04-14 05:50 | 53.39030 | -7.60923 | 36829 ft | 544 kts | 117° |
| 2026-04-14 05:50 | 53.35745 | -7.49575 | 36828 ft | 544 kts | 117° |
| 2026-04-14 05:51 | 53.32425 | -7.38167 | 36839 ft | 544 kts | 117° |
| 2026-04-14 05:51 | 53.29094 | -7.26780 | 36835 ft | 544 kts | 117° |
| 2026-04-14 05:52 | 53.25750 | -7.15404 | 36851 ft | 544 kts | 117° |
| 2026-04-14 05:52 | 53.22424 | -7.04145 | 36847 ft | 543 kts | 117° |
| 2026-04-14 05:53 | 53.19074 | -6.92855 | 36850 ft | 543 kts | 117° |
| 2026-04-14 05:53 | 53.15704 | -6.81551 | 36850 ft | 543 kts | 117° |
| 2026-04-14 05:54 | 53.12331 | -6.70292 | 36867 ft | 543 kts | 117° |
| 2026-04-14 05:54 | 53.08961 | -6.59098 | 36877 ft | 543 kts | 118° |
| 2026-04-14 05:55 | 53.05562 | -6.47868 | 36870 ft | 543 kts | 117° |
| 2026-04-14 05:55 | 53.02155 | -6.36652 | 36882 ft | 543 kts | 117° |
| 2026-04-14 05:56 | 52.98743 | -6.25464 | 36894 ft | 543 kts | 117° |
| 2026-04-14 05:56 | 52.95341 | -6.14372 | 36899 ft | 543 kts | 118° |
| 2026-04-14 05:57 | 52.91902 | -6.03209 | 36914 ft | 543 kts | 118° |
| 2026-04-14 05:57 | 52.88452 | -5.92063 | 36909 ft | 544 kts | 118° |
| 2026-04-14 05:58 | 52.84983 | -5.80914 | 36901 ft | 544 kts | 118° |
| 2026-04-14 05:58 | 52.81528 | -5.69853 | 36913 ft | 544 kts | 118° |
| 2026-04-14 05:59 | 52.78042 | -5.58743 | 36927 ft | 544 kts | 118° |
| 2026-04-14 05:59 | 52.74545 | -5.47639 | 36927 ft | 544 kts | 118° |
| 2026-04-14 06:00 | 52.71083 | -5.36528 | 36940 ft | 544 kts | 117° |
| 2026-04-14 06:00 | 52.67617 | -5.25421 | 36940 ft | 544 kts | 118° |
| 2026-04-14 06:01 | 52.64159 | -5.14406 | 36926 ft | 543 kts | 118° |
| 2026-04-14 06:01 | 52.60673 | -5.03361 | 36942 ft | 544 kts | 118° |
| 2026-04-14 06:02 | 52.58930 | -4.97856 | 37239 ft | 544 kts | 118° |
| 2026-04-14 06:02 | 52.57182 | -4.92346 | 37716 ft | 541 kts | 118° |
| 2026-04-14 06:02 | 52.55447 | -4.86887 | 38255 ft | 535 kts | 118° |
| 2026-04-14 06:02 | 52.53728 | -4.81490 | 38736 ft | 531 kts | 118° |
| 2026-04-14 06:03 | 52.52014 | -4.76130 | 38939 ft | 528 kts | 118° |
| 2026-04-14 06:03 | 52.50328 | -4.70868 | 38946 ft | 527 kts | 119° |
| 2026-04-14 06:04 | 52.45191 | -4.54910 | 38956 ft | 526 kts | 119° |
| 2026-04-14 06:04 | 52.41756 | -4.44300 | 38964 ft | 527 kts | 119° |
| 2026-04-14 06:05 | 52.38307 | -4.33676 | 38972 ft | 528 kts | 119° |
| 2026-04-14 06:05 | 52.34868 | -4.23134 | 38969 ft | 528 kts | 119° |
| 2026-04-14 06:06 | 52.31396 | -4.12537 | 38981 ft | 528 kts | 119° |
| 2026-04-14 06:06 | 52.27917 | -4.01964 | 38981 ft | 528 kts | 119° |
| 2026-04-14 06:07 | 52.24430 | -3.91409 | 38999 ft | 528 kts | 120° |
| 2026-04-14 06:07 | 52.20943 | -3.80909 | 38984 ft | 529 kts | 119° |
| 2026-04-14 06:08 | 52.17424 | -3.70356 | 39000 ft | 529 kts | 119° |
| 2026-04-14 06:08 | 52.13896 | -3.59809 | 39003 ft | 529 kts | 119° |
| 2026-04-14 06:09 | 52.10361 | -3.49291 | 39028 ft | 529 kts | 120° |
| 2026-04-14 06:09 | 52.06838 | -3.38851 | 39021 ft | 530 kts | 120° |
| 2026-04-14 06:10 | 52.03269 | -3.28321 | 39028 ft | 532 kts | 120° |
| 2026-04-14 06:10 | 51.99689 | -3.17810 | 39007 ft | 532 kts | 120° |
| 2026-04-14 06:11 | 51.96100 | -3.07318 | 39049 ft | 531 kts | 120° |
| 2026-04-14 06:11 | 51.92532 | -2.96919 | 39055 ft | 531 kts | 120° |
| 2026-04-14 06:12 | 51.88924 | -2.86451 | 39055 ft | 533 kts | 120° |
| 2026-04-14 06:12 | 51.85293 | -2.75961 | 39037 ft | 534 kts | 120° |
| 2026-04-14 06:13 | 51.81675 | -2.65553 | 39036 ft | 534 kts | 120° |
| 2026-04-14 06:13 | 51.78028 | -2.55103 | 39016 ft | 534 kts | 120° |
| 2026-04-14 06:14 | 51.74366 | -2.44667 | 39041 ft | 533 kts | 120° |
| 2026-04-14 06:14 | 51.70697 | -2.34245 | 39053 ft | 535 kts | 120° |
| 2026-04-14 06:15 | 51.67011 | -2.23807 | 39062 ft | 535 kts | 120° |
| 2026-04-14 06:15 | 51.63336 | -2.13449 | 39048 ft | 535 kts | 120° |
| 2026-04-14 06:16 | 51.59630 | -2.03048 | 39060 ft | 535 kts | 120° |
| 2026-04-14 06:16 | 51.55917 | -1.92673 | 39072 ft | 535 kts | 120° |
| 2026-04-14 06:17 | 51.52185 | -1.82308 | 39077 ft | 535 kts | 120° |
| 2026-04-14 06:17 | 51.48759 | -1.71798 | 39075 ft | 534 kts | 113° |
| 2026-04-14 06:18 | 51.46099 | -1.60676 | 39081 ft | 533 kts | 105° |
| 2026-04-14 06:18 | 51.44287 | -1.49182 | 39085 ft | 531 kts | 99° |
| 2026-04-14 06:19 | 51.42783 | -1.37586 | 39092 ft | 529 kts | 99° |
| 2026-04-14 06:19 | 51.41199 | -1.26062 | 39093 ft | 528 kts | 100° |
| 2026-04-14 06:20 | 51.39748 | -1.14605 | 39103 ft | 526 kts | 95° |
| 2026-04-14 06:20 | 51.38980 | -1.02974 | 39097 ft | 524 kts | 91° |
| 2026-04-14 06:21 | 51.38407 | -0.91338 | 39122 ft | 523 kts | 91° |
| 2026-04-14 06:21 | 51.37814 | -0.79736 | 39121 ft | 521 kts | 91° |
| 2026-04-14 06:22 | 51.37203 | -0.68252 | 39120 ft | 521 kts | 91° |
| 2026-04-14 06:22 | 51.36572 | -0.56689 | 39126 ft | 521 kts | 91° |
| 2026-04-14 06:23 | 51.35929 | -0.45122 | 39125 ft | 521 kts | 91° |
| 2026-04-14 06:23 | 51.35274 | -0.33554 | 39122 ft | 521 kts | 91° |
| 2026-04-14 06:24 | 51.34612 | -0.22066 | 39126 ft | 521 kts | 92° |
| 2026-04-14 06:24 | 51.33933 | -0.10501 | 39126 ft | 521 kts | 92° |
| 2026-04-14 06:25 | 51.33242 | 0.01047 | 39124 ft | 520 kts | 92° |
| 2026-04-14 06:25 | 51.32275 | 0.12508 | 39077 ft | 519 kts | 95° |
| 2026-04-14 06:26 | 51.31195 | 0.23858 | 39050 ft | 519 kts | 95° |
| 2026-04-14 06:26 | 51.30098 | 0.35283 | 39029 ft | 519 kts | 95° |
| 2026-04-14 06:27 | 51.28996 | 0.46695 | 39029 ft | 519 kts | 95° |
| 2026-04-14 06:27 | 51.27886 | 0.58093 | 39038 ft | 517 kts | 96° |
| 2026-04-14 06:28 | 51.26775 | 0.69379 | 39061 ft | 517 kts | 96° |
| 2026-04-14 06:28 | 51.25647 | 0.80723 | 39099 ft | 517 kts | 96° |
| 2026-04-14 06:29 | 51.24505 | 0.92084 | 39127 ft | 517 kts | 96° |
| 2026-04-14 06:29 | 51.23357 | 1.03421 | 39166 ft | 515 kts | 96° |
| 2026-04-14 06:30 | 51.22207 | 1.14638 | 39158 ft | 515 kts | 96° |
| 2026-04-14 06:30 | 51.21039 | 1.25916 | 39158 ft | 515 kts | 96° |
| 2026-04-14 06:31 | 51.19860 | 1.37198 | 39158 ft | 515 kts | 96° |
| 2026-04-14 06:31 | 51.18672 | 1.48460 | 39164 ft | 513 kts | 97° |
| 2026-04-14 06:32 | 51.17484 | 1.59611 | 39163 ft | 512 kts | 97° |
| 2026-04-14 06:32 | 51.16278 | 1.70819 | 39162 ft | 512 kts | 97° |
| 2026-04-14 06:33 | 51.15062 | 1.82018 | 39159 ft | 512 kts | 97° |
| 2026-04-14 06:33 | 51.13833 | 1.93221 | 39187 ft | 512 kts | 97° |
| 2026-04-14 06:34 | 51.12565 | 2.09952 | 39174 ft | 507 kts | 91° |
| 2026-04-14 06:34 | 51.12018 | 2.21163 | 39175 ft | 507 kts | 91° |
| 2026-04-14 06:35 | 51.11453 | 2.32373 | 39172 ft | 507 kts | 91° |
| 2026-04-14 06:35 | 51.10875 | 2.43493 | 39172 ft | 507 kts | 92° |
| 2026-04-14 06:36 | 51.10276 | 2.54683 | 39169 ft | 506 kts | 92° |
| 2026-04-14 06:36 | 51.09348 | 2.65809 | 39166 ft | 508 kts | 98° |
| 2026-04-14 06:37 | 51.07639 | 2.76767 | 39168 ft | 510 kts | 104° |
| 2026-04-14 06:37 | 51.05640 | 2.87528 | 39184 ft | 510 kts | 104° |
| 2026-04-14 06:38 | 51.03623 | 2.98342 | 39178 ft | 509 kts | 104° |
| 2026-04-14 06:38 | 51.01605 | 3.09152 | 39174 ft | 509 kts | 104° |
| 2026-04-14 06:39 | 50.99580 | 3.19964 | 39165 ft | 509 kts | 104° |
| 2026-04-14 06:39 | 50.97564 | 3.30673 | 39169 ft | 509 kts | 105° |
| 2026-04-14 06:40 | 50.95532 | 3.41415 | 39179 ft | 507 kts | 105° |
| 2026-04-14 06:40 | 50.93489 | 3.52133 | 39179 ft | 507 kts | 105° |
| 2026-04-14 06:41 | 50.91434 | 3.62851 | 39176 ft | 507 kts | 105° |
| 2026-04-14 06:41 | 50.89391 | 3.73480 | 39172 ft | 507 kts | 105° |
| 2026-04-14 06:42 | 50.87331 | 3.84159 | 39179 ft | 505 kts | 105° |
| 2026-04-14 06:42 | 50.85264 | 3.94799 | 39177 ft | 505 kts | 106° |
| 2026-04-14 06:43 | 50.83181 | 4.05414 | 39174 ft | 505 kts | 106° |
| 2026-04-14 06:43 | 50.81100 | 4.16032 | 39172 ft | 504 kts | 105° |
| 2026-04-14 06:44 | 50.79025 | 4.26563 | 39179 ft | 504 kts | 105° |
| 2026-04-14 06:44 | 50.76925 | 4.37143 | 39178 ft | 504 kts | 105° |
| 2026-04-14 06:45 | 50.74815 | 4.47706 | 39174 ft | 504 kts | 105° |
| 2026-04-14 06:45 | 50.72705 | 4.58195 | 39172 ft | 504 kts | 106° |
| 2026-04-14 06:46 | 50.69616 | 4.74048 | 39171 ft | 501 kts | 105° |
| 2026-04-14 06:47 | 50.67577 | 4.84558 | 39167 ft | 501 kts | 105° |
| 2026-04-14 06:47 | 50.65505 | 4.95066 | 39170 ft | 501 kts | 106° |
| 2026-04-14 06:48 | 50.63374 | 5.05456 | 39177 ft | 501 kts | 106° |
| 2026-04-14 06:48 | 50.61208 | 5.15930 | 39177 ft | 500 kts | 107° |
| 2026-04-14 06:49 | 50.59056 | 5.26300 | 39160 ft | 497 kts | 107° |
| 2026-04-14 06:49 | 50.56900 | 5.36633 | 38881 ft | 496 kts | 107° |
| 2026-04-14 06:49 | 50.55821 | 5.41789 | 38179 ft | 497 kts | 107° |
| 2026-04-14 06:50 | 50.54751 | 5.46894 | 37321 ft | 500 kts | 107° |
| 2026-04-14 06:50 | 50.53654 | 5.52108 | 36573 ft | 502 kts | 107° |
| 2026-04-14 06:50 | 50.52552 | 5.57332 | 35874 ft | 503 kts | 107° |
| 2026-04-14 06:50 | 50.51457 | 5.62595 | 35202 ft | 503 kts | 107° |
| 2026-04-14 06:51 | 50.50460 | 5.67875 | 34560 ft | 503 kts | 106° |
| 2026-04-14 06:51 | 50.49476 | 5.73149 | 33870 ft | 503 kts | 106° |
| 2026-04-14 06:51 | 50.48491 | 5.78430 | 33130 ft | 503 kts | 106° |
| 2026-04-14 06:51 | 50.47504 | 5.83706 | 32460 ft | 503 kts | 106° |
| 2026-04-14 06:52 | 50.46527 | 5.88908 | 31821 ft | 503 kts | 106° |
| 2026-04-14 06:52 | 50.45533 | 5.94183 | 31168 ft | 503 kts | 106° |
| 2026-04-14 06:52 | 50.44538 | 5.99448 | 30508 ft | 503 kts | 107° |
| 2026-04-14 06:52 | 50.43533 | 6.04743 | 29789 ft | 502 kts | 107° |
| 2026-04-14 06:53 | 50.42533 | 6.09989 | 29100 ft | 499 kts | 107° |
| 2026-04-14 06:53 | 50.41543 | 6.15180 | 28409 ft | 495 kts | 107° |
| 2026-04-14 06:53 | 50.40889 | 6.18598 | 27955 ft | 493 kts | 107° |
| 2026-04-14 06:53 | 50.39904 | 6.23728 | 27477 ft | 487 kts | 107° |
| 2026-04-14 06:54 | 50.38618 | 6.30408 | 26823 ft | 479 kts | 107° |
| 2026-04-14 06:54 | 50.37661 | 6.35386 | 26356 ft | 474 kts | 107° |
| 2026-04-14 06:54 | 50.36837 | 6.40360 | 25882 ft | 468 kts | 103° |
| 2026-04-14 06:54 | 50.36239 | 6.45351 | 25450 ft | 463 kts | 99° |
| 2026-04-14 06:55 | 50.35953 | 6.48720 | 25153 ft | 459 kts | 96° |
| 2026-04-14 06:55 | 50.35646 | 6.53608 | 24747 ft | 454 kts | 95° |
| 2026-04-14 06:55 | 50.35355 | 6.58513 | 24331 ft | 450 kts | 95° |
| 2026-04-14 06:55 | 50.35061 | 6.63375 | 23912 ft | 446 kts | 96° |
| 2026-04-14 06:56 | 50.34759 | 6.68196 | 23451 ft | 443 kts | 96° |
| 2026-04-14 06:56 | 50.34452 | 6.72980 | 22984 ft | 439 kts | 96° |
| 2026-04-14 06:56 | 50.34053 | 6.79254 | 22399 ft | 434 kts | 96° |
| 2026-04-14 06:56 | 50.33598 | 6.83907 | 21950 ft | 430 kts | 102° |
| 2026-04-14 06:57 | 50.32816 | 6.88404 | 21538 ft | 426 kts | 109° |
| 2026-04-14 06:57 | 50.31727 | 6.92700 | 21108 ft | 422 kts | 115° |
| 2026-04-14 06:57 | 50.30916 | 6.95467 | 20834 ft | 420 kts | 116° |
| 2026-04-14 06:57 | 50.29669 | 6.99574 | 20425 ft | 416 kts | 116° |
| 2026-04-14 06:58 | 50.28429 | 7.03655 | 20012 ft | 413 kts | 116° |
| 2026-04-14 06:58 | 50.27207 | 7.07707 | 19603 ft | 411 kts | 115° |
| 2026-04-14 06:58 | 50.25995 | 7.11742 | 19180 ft | 409 kts | 115° |
| 2026-04-14 06:58 | 50.24787 | 7.15767 | 18757 ft | 407 kts | 115° |
| 2026-04-14 06:59 | 50.23588 | 7.19764 | 18322 ft | 405 kts | 115° |
| 2026-04-14 06:59 | 50.22394 | 7.23742 | 17865 ft | 403 kts | 115° |
| 2026-04-14 06:59 | 50.21222 | 7.27644 | 17422 ft | 400 kts | 115° |
| 2026-04-14 06:59 | 50.20037 | 7.31625 | 16978 ft | 397 kts | 115° |
| 2026-04-14 07:00 | 50.19004 | 7.35550 | 16570 ft | 395 kts | 111° |
| 2026-04-14 07:00 | 50.18054 | 7.39566 | 16152 ft | 392 kts | 112° |
| 2026-04-14 07:00 | 50.17110 | 7.43539 | 15755 ft | 390 kts | 113° |
| 2026-04-14 07:00 | 50.16164 | 7.47495 | 15345 ft | 388 kts | 113° |
| 2026-04-14 07:01 | 50.15214 | 7.51458 | 14927 ft | 386 kts | 113° |
| 2026-04-14 07:01 | 50.14267 | 7.55400 | 14514 ft | 384 kts | 113° |
| 2026-04-14 07:01 | 50.13332 | 7.59289 | 14106 ft | 382 kts | 113° |
| 2026-04-14 07:01 | 50.12399 | 7.63164 | 13647 ft | 380 kts | 113° |
| 2026-04-14 07:02 | 50.11370 | 7.66940 | 13216 ft | 376 kts | 118° |
| 2026-04-14 07:02 | 50.10146 | 7.70491 | 12879 ft | 380 kts | 123° |
| 2026-04-14 07:02 | 50.08685 | 7.73964 | 12893 ft | 386 kts | 127° |
| 2026-04-14 07:02 | 50.07154 | 7.77414 | 12912 ft | 387 kts | 127° |
| 2026-04-14 07:03 | 50.05609 | 7.80867 | 12867 ft | 387 kts | 127° |
| 2026-04-14 07:03 | 50.04071 | 7.84305 | 12421 ft | 386 kts | 127° |
| 2026-04-14 07:03 | 50.02549 | 7.87713 | 11952 ft | 381 kts | 127° |
| 2026-04-14 07:03 | 50.01062 | 7.91117 | 11384 ft | 379 kts | 122° |
| 2026-04-14 07:04 | 50.00161 | 7.94967 | 10750 ft | 382 kts | 99° |
| 2026-04-14 07:04 | 50.00283 | 7.99017 | 10459 ft | 373 kts | 77° |
| 2026-04-14 07:04 | 50.01114 | 8.02767 | 10120 ft | 359 kts | 68° |
| 2026-04-14 07:04 | 50.02028 | 8.06328 | 9717 ft | 343 kts | 68° |
| 2026-04-14 07:05 | 50.02894 | 8.09696 | 9468 ft | 327 kts | 68° |
| 2026-04-14 07:05 | 50.03711 | 8.12931 | 9320 ft | 316 kts | 68° |
| 2026-04-14 07:05 | 50.04497 | 8.16095 | 9134 ft | 307 kts | 68° |
| 2026-04-14 07:05 | 50.05248 | 8.19155 | 8957 ft | 298 kts | 68° |
| 2026-04-14 07:06 | 50.05976 | 8.22145 | 8758 ft | 291 kts | 68° |
| 2026-04-14 07:06 | 50.06687 | 8.25075 | 8437 ft | 288 kts | 68° |
| 2026-04-14 07:06 | 50.07383 | 8.27955 | 8145 ft | 285 kts | 68° |
| 2026-04-14 07:06 | 50.08078 | 8.30842 | 7822 ft | 283 kts | 68° |
| 2026-04-14 07:07 | 50.08767 | 8.33700 | 7490 ft | 280 kts | 68° |
| 2026-04-14 07:07 | 50.09450 | 8.36534 | 7168 ft | 278 kts | 68° |
| 2026-04-14 07:07 | 50.10126 | 8.39341 | 6837 ft | 275 kts | 68° |
| 2026-04-14 07:07 | 50.10795 | 8.42128 | 6516 ft | 273 kts | 68° |
| 2026-04-14 07:08 | 50.11459 | 8.44891 | 6228 ft | 270 kts | 68° |
| 2026-04-14 07:08 | 50.12117 | 8.47639 | 5974 ft | 270 kts | 68° |
| 2026-04-14 07:08 | 50.12764 | 8.50349 | 5714 ft | 268 kts | 67° |
| 2026-04-14 07:08 | 50.13410 | 8.53068 | 5450 ft | 265 kts | 67° |
| 2026-04-14 07:09 | 50.14054 | 8.55757 | 5148 ft | 265 kts | 67° |
| 2026-04-14 07:09 | 50.14694 | 8.58444 | 4858 ft | 262 kts | 67° |
| 2026-04-14 07:09 | 50.15324 | 8.61096 | 4596 ft | 260 kts | 67° |
| 2026-04-14 07:09 | 50.15950 | 8.63725 | 4334 ft | 257 kts | 67° |
| 2026-04-14 07:10 | 50.16571 | 8.66341 | 4087 ft | 255 kts | 67° |
| 2026-04-14 07:10 | 50.17186 | 8.68928 | 4033 ft | 254 kts | 67° |
| 2026-04-14 07:10 | 50.17802 | 8.71522 | 4025 ft | 255 kts | 67° |
| 2026-04-14 07:10 | 50.18418 | 8.74119 | 4023 ft | 255 kts | 67° |
| 2026-04-14 07:11 | 50.19024 | 8.76678 | 4019 ft | 255 kts | 67° |
| 2026-04-14 07:11 | 50.19639 | 8.79275 | 4020 ft | 255 kts | 67° |
| 2026-04-14 07:11 | 50.20250 | 8.81875 | 4019 ft | 255 kts | 67° |
| 2026-04-14 07:11 | 50.20801 | 8.84515 | 3995 ft | 257 kts | 78° |
| 2026-04-14 07:12 | 50.20654 | 8.87290 | 3996 ft | 259 kts | 108° |
| 2026-04-14 07:12 | 50.19675 | 8.89556 | 3989 ft | 249 kts | 139° |
| 2026-04-14 07:12 | 50.18165 | 8.90702 | 4005 ft | 241 kts | 166° |
| 2026-04-14 07:12 | 50.16535 | 8.91133 | 4014 ft | 240 kts | 172° |
| 2026-04-14 07:13 | 50.14874 | 8.91380 | 4007 ft | 241 kts | 182° |
| 2026-04-14 07:13 | 50.13238 | 8.90826 | 4013 ft | 241 kts | 200° |
| 2026-04-14 07:13 | 50.11725 | 8.89743 | 3982 ft | 239 kts | 221° |
| 2026-04-14 07:13 | 50.10724 | 8.87720 | 4017 ft | 236 kts | 248° |
| 2026-04-14 07:14 | 50.10186 | 8.85322 | 3966 ft | 234 kts | 257° |
| 2026-04-14 07:14 | 50.09734 | 8.82874 | 3729 ft | 236 kts | 256° |
| 2026-04-14 07:14 | 50.09226 | 8.80454 | 3358 ft | 229 kts | 254° |
| 2026-04-14 07:14 | 50.08700 | 8.78211 | 3167 ft | 218 kts | 253° |
| 2026-04-14 07:15 | 50.08170 | 8.76024 | 2850 ft | 214 kts | 253° |
| 2026-04-14 07:15 | 50.07653 | 8.73898 | 2507 ft | 204 kts | 253° |
| 2026-04-14 07:15 | 50.07169 | 8.71895 | 2211 ft | 192 kts | 253° |
| 2026-04-14 07:15 | 50.06713 | 8.70004 | 1927 ft | 181 kts | 253° |
| 2026-04-14 07:16 | 50.06284 | 8.68241 | 1755 ft | 166 kts | 253° |
| 2026-04-14 07:16 | 50.05888 | 8.66593 | 1514 ft | 161 kts | 251° |
| 2026-04-14 07:16 | 50.05495 | 8.64967 | 1263 ft | 159 kts | 252° |
| 2026-04-14 07:16 | 50.05123 | 8.63367 | 1057 ft | 154 kts | 251° |
| 2026-04-14 07:17 | 50.04747 | 8.61799 | 856 ft | 157 kts | 251° |
| 2026-04-14 07:17 | 50.04363 | 8.60216 | 661 ft | 155 kts | 252° |
| 2026-04-14 07:17 | 50.03993 | 8.58625 | 422 ft | 158 kts | 252° |
| 2026-04-14 07:17 | 50.03637 | 8.57098 | 365 ft | 127 kts | 248° |
| 2026-04-14 07:18 | 50.03413 | 8.56177 | 360 ft | 47 kts | 249° |
| 2026-04-14 07:18 | 50.03330 | 8.55815 | 361 ft | 23 kts | 253° |
| 2026-04-14 07:18 | 50.03310 | 8.55558 | 351 ft | 25 kts | 274° |
| 2026-04-14 07:18 | 50.03335 | 8.55310 | 358 ft | 13 kts | 279° |
| 2026-04-14 07:19 | 50.03350 | 8.55176 | 357 ft | 14 kts | 279° |
| 2026-04-14 07:19 | 50.03364 | 8.55022 | 357 ft | 15 kts | 272° |
| 2026-04-14 07:19 | 50.03342 | 8.54842 | 356 ft | 19 kts | 249° |
| 2026-04-14 07:19 | 50.03292 | 8.54636 | 355 ft | 20 kts | 249° |
| 2026-04-14 07:20 | 50.03272 | 8.54541 | 349 ft | 7 kts | 275° |
| 2026-04-14 07:20 | 50.03307 | 8.54486 | 353 ft | 5 kts | 334° |
| 2026-04-14 07:20 | 50.03326 | 8.54474 | 355 ft | 3 kts | 338° |
| 2026-04-14 07:20 | 50.03354 | 8.54456 | 356 ft | 5 kts | 338° |
| 2026-04-14 07:21 | 50.03402 | 8.54428 | 357 ft | 9 kts | 339° |
| 2026-04-14 07:21 | 50.03463 | 8.54392 | 359 ft | 10 kts | 339° |
| 2026-04-14 07:21 | 50.03540 | 8.54348 | 355 ft | 14 kts | 339° |
| 2026-04-14 07:21 | 50.03600 | 8.54313 | 357 ft | 1 kts | 339° |
| 2026-04-14 07:22 | 50.03619 | 8.54303 | 356 ft | 3 kts | 346° |
| 2026-04-14 07:22 | 50.03648 | 8.54316 | 359 ft | 5 kts | 40° |
| 2026-04-14 07:22 | 50.03664 | 8.54351 | 358 ft | 0 kts | 61° |
| 2026-04-14 07:22 | 50.03670 | 8.54372 | 358 ft | 5 kts | 68° |
| 2026-04-14 07:23 | 50.03688 | 8.54441 | 355 ft | 9 kts | 68° |
| 2026-04-14 07:23 | 50.03712 | 8.54542 | 359 ft | 11 kts | 70° |
| 2026-04-14 07:23 | 50.03733 | 8.54633 | 358 ft | 10 kts | 70° |
| 2026-04-14 07:23 | 50.03759 | 8.54744 | 359 ft | 11 kts | 70° |
| 2026-04-14 07:24 | 50.03783 | 8.54847 | 359 ft | 9 kts | 70° |
| 2026-04-14 07:24 | 50.03809 | 8.54955 | 363 ft | 12 kts | 70° |
| 2026-04-14 07:24 | 50.03840 | 8.55089 | 358 ft | 14 kts | 70° |
| 2026-04-14 07:24 | 50.03880 | 8.55252 | 363 ft | 18 kts | 68° |
| 2026-04-14 07:25 | 50.03904 | 8.55350 | 362 ft | 9 kts | 69° |
| 2026-04-14 07:25 | 50.03932 | 8.55457 | 364 ft | 12 kts | 69° |
| 2026-04-14 07:25 | 50.03961 | 8.55580 | 363 ft | 13 kts | 70° |
| 2026-04-14 07:25 | 50.03995 | 8.55724 | 360 ft | 15 kts | 70° |
| 2026-04-14 07:26 | 50.04024 | 8.55851 | 363 ft | 1 kts | 70° |
| 2026-04-14 07:26 | 50.04030 | 8.55875 | 365 ft | 5 kts | 70° |
| 2026-04-14 07:26 | 50.04045 | 8.55936 | 363 ft | 7 kts | 62° |
| 2026-04-14 07:26 | 50.04090 | 8.55967 | 363 ft | 8 kts | 1° |
| 2026-04-14 07:27 | 50.04149 | 8.55940 | 367 ft | 8 kts | 338° |
| 2026-04-14 07:27 | 50.04184 | 8.55919 | 362 ft | 6 kts | 340° |
| 2026-04-14 07:27 | 50.04222 | 8.55927 | 366 ft | 6 kts | 39° |
| 2026-04-14 07:27 | 50.04265 | 8.55965 | 368 ft | 9 kts | 8° |
| 2026-04-14 07:28 | 50.04326 | 8.55940 | 364 ft | 10 kts | 337° |
| 2026-04-14 07:28 | 50.04377 | 8.55913 | 369 ft | 4 kts | 351° |
| 2026-04-14 07:28 | 50.04403 | 8.55911 | 368 ft | 5 kts | 1° |
| 2026-04-14 07:28 | 50.04448 | 8.55922 | 369 ft | 8 kts | 15° |
| 2026-04-14 07:29 | 50.04494 | 8.55942 | 370 ft | 7 kts | 15° |
| 2026-04-14 07:29 | 50.04531 | 8.55958 | 368 ft | 7 kts | 19° |
| 2026-04-14 07:29 | 50.04566 | 8.56022 | 368 ft | 10 kts | 65° |
| 2026-04-14 07:29 | 50.04595 | 8.56131 | 368 ft | 12 kts | 69° |
| 2026-04-14 07:30 | 50.04624 | 8.56255 | 365 ft | 13 kts | 70° |
| 2026-04-14 07:30 | 50.04649 | 8.56362 | 368 ft | 9 kts | 69° |
| 2026-04-14 07:30 | 50.04671 | 8.56456 | 368 ft | 3 kts | 69° |
| 2026-04-14 07:30 | 50.04681 | 8.56495 | 369 ft | 5 kts | 65° |
| 2026-04-14 07:31 | 50.04707 | 8.56554 | 366 ft | 5 kts | 56° |
| 2026-04-14 07:31 | 50.04726 | 8.56598 | 368 ft | 3 kts | 53° |
| 2026-04-14 07:31 | 50.04736 | 8.56612 | 370 ft | 0 kts | 34° |
| 2026-04-14 07:31 | 50.04750 | 8.56615 | 370 ft | 4 kts | 353° |
| 2026-04-14 07:32 | 50.04772 | 8.56605 | 368 ft | 1 kts | 340° |
| 2026-04-14 07:32 | 50.04786 | 8.56597 | 370 ft | 3 kts | 340° |
| 2026-04-14 07:32 | 50.04794 | 8.56592 | 366 ft | 0 kts | 340° |